createdAt,value
2022-12-27T00:01:10.867Z,0.00
2022-12-27T00:11:11.190Z,0.00
2022-12-27T00:21:11.217Z,0.00
2022-12-27T00:31:11.631Z,0.00
2022-12-27T00:41:11.772Z,0.00
2022-12-27T00:51:11.823Z,0.00
2022-12-27T01:01:12.292Z,0.00
2022-12-27T01:11:13.338Z,0.00
2022-12-27T01:21:12.456Z,0.00
2022-12-27T01:31:12.640Z,0.00
2022-12-27T01:41:12.739Z,0.00
2022-12-27T01:51:13.038Z,0.00
2022-12-27T02:01:13.228Z,0.00
2022-12-27T02:11:13.412Z,0.00
2022-12-27T02:21:13.444Z,0.00
2022-12-27T02:31:13.827Z,0.00
2022-12-27T02:41:13.910Z,0.00
2022-12-27T02:51:14.271Z,0.00
2022-12-27T03:01:14.395Z,0.00
2022-12-27T03:11:14.619Z,0.00
2022-12-27T03:21:14.704Z,0.00
2022-12-27T03:31:15.071Z,0.00
2022-12-27T03:41:15.163Z,0.00
2022-12-27T03:51:15.417Z,0.00
2022-12-27T04:01:15.782Z,0.00
2022-12-27T04:11:15.886Z,0.00
2022-12-27T04:21:16.126Z,0.00
2022-12-27T04:31:16.436Z,0.00
2022-12-27T04:41:16.458Z,0.00
2022-12-27T04:51:16.789Z,0.00
2022-12-27T05:01:16.904Z,0.00
2022-12-27T05:11:16.936Z,0.00
2022-12-27T05:21:17.163Z,0.00
2022-12-27T05:31:17.444Z,0.00
2022-12-27T05:41:17.501Z,0.00
2022-12-27T05:51:17.793Z,0.00
2022-12-27T06:01:17.909Z,0.00
2022-12-27T06:11:18.055Z,0.00
2022-12-27T06:21:18.303Z,0.00
2022-12-27T06:31:19.621Z,0.00
2022-12-27T06:41:18.674Z,0.00
2022-12-27T06:51:19.017Z,0.00
2022-12-27T07:01:19.193Z,0.00
2022-12-27T07:11:19.191Z,0.00
2022-12-27T07:21:19.225Z,0.00
2022-12-27T07:31:19.933Z,0.00
2022-12-27T07:41:19.704Z,0.00
2022-12-27T07:51:20.013Z,0.00
2022-12-27T08:01:20.121Z,0.00
2022-12-27T08:11:20.290Z,0.00
2022-12-27T08:21:20.334Z,5.62
2022-12-27T08:31:20.673Z,5.62
2022-12-27T08:41:20.707Z,5.62
2022-12-27T08:51:31.671Z,0.00
2022-12-27T09:01:22.239Z,5.62
2022-12-27T09:11:21.322Z,5.62
2022-12-27T09:21:21.682Z,5.62
2022-12-27T09:31:21.733Z,5.62
2022-12-27T09:42:11.497Z,11.25
2022-12-27T09:51:23.097Z,11.25
2022-12-27T10:01:22.556Z,16.88
2022-12-27T10:11:22.433Z,11.25
2022-12-27T10:21:22.691Z,22.50
2022-12-27T10:31:22.973Z,22.50
2022-12-27T10:41:23.056Z,28.12
2022-12-27T10:51:23.285Z,16.88
2022-12-27T11:01:23.743Z,22.50
2022-12-27T11:11:23.620Z,22.50
2022-12-27T11:21:27.731Z,28.12
2022-12-27T11:31:24.055Z,28.12
2022-12-27T11:41:27.879Z,22.50
2022-12-27T11:51:24.544Z,22.50
2022-12-27T12:01:24.937Z,39.38
2022-12-27T12:11:24.981Z,33.75
2022-12-27T12:21:25.319Z,67.50
2022-12-27T12:31:26.266Z,22.50
2022-12-27T12:41:25.589Z,50.62
2022-12-27T12:51:25.690Z,140.62
2022-12-27T13:01:25.835Z,84.38
2022-12-27T13:11:25.953Z,90.00
2022-12-27T13:21:26.212Z,95.62
2022-12-27T13:31:26.439Z,112.50
2022-12-27T13:41:30.714Z,95.62
2022-12-27T13:51:26.931Z,39.38
2022-12-27T14:01:27.254Z,22.50
2022-12-27T14:11:27.340Z,16.88
2022-12-27T14:21:27.632Z,11.25
2022-12-27T14:31:27.715Z,5.62
2022-12-27T14:41:27.800Z,5.62
2022-12-27T15:01:29.317Z,5.62
2022-12-27T15:11:28.572Z,0.00
2022-12-27T15:21:28.614Z,0.00
2022-12-27T15:31:31.342Z,0.00
2022-12-27T15:41:29.001Z,0.00
2022-12-27T15:51:29.317Z,0.00
2022-12-27T16:01:29.536Z,0.00
2022-12-27T16:11:29.586Z,0.00
2022-12-27T16:21:29.644Z,0.00
2022-12-27T16:31:30.026Z,0.00
2022-12-27T16:41:30.098Z,0.00
2022-12-27T16:51:30.409Z,0.00
2022-12-27T17:01:30.527Z,0.00
2022-12-27T17:11:30.690Z,0.00
2022-12-27T17:21:30.990Z,0.00
2022-12-27T17:31:35.418Z,0.00
2022-12-27T17:41:31.251Z,0.00
2022-12-27T17:51:31.539Z,0.00
2022-12-27T18:01:31.675Z,0.00
2022-12-27T18:11:32.030Z,0.00
2022-12-27T18:21:31.943Z,0.00
2022-12-27T18:31:32.307Z,0.00
2022-12-27T18:41:32.359Z,0.00
2022-12-27T18:51:32.691Z,0.00
2022-12-27T19:01:33.154Z,0.00
2022-12-27T19:11:36.339Z,0.00
2022-12-27T19:21:33.332Z,0.00
2022-12-27T19:31:33.433Z,0.00
2022-12-27T19:41:33.516Z,0.00
2022-12-27T19:51:33.752Z,0.00
2022-12-27T20:01:33.709Z,0.00
2022-12-27T20:11:34.023Z,0.00
2022-12-27T20:21:34.051Z,0.00
2022-12-27T20:31:40.469Z,0.00
2022-12-27T20:41:35.470Z,0.00
2022-12-27T20:51:34.751Z,0.00
2022-12-27T21:01:34.843Z,0.00
2022-12-27T21:11:36.227Z,0.00
2022-12-27T21:21:35.420Z,0.00
2022-12-27T21:31:35.621Z,0.00
2022-12-27T21:41:35.666Z,0.00
2022-12-27T21:51:35.906Z,0.00
2022-12-27T22:01:50.352Z,0.00
2022-12-27T22:11:37.194Z,0.00
2022-12-27T22:21:36.543Z,0.00
2022-12-27T22:31:36.685Z,0.00
2022-12-27T22:41:39.994Z,0.00
2022-12-27T22:51:36.815Z,0.00
2022-12-27T23:01:37.145Z,0.00
2022-12-27T23:11:37.237Z,0.00
2022-12-27T23:21:37.537Z,0.00
2022-12-27T23:31:55.346Z,0.00
2022-12-27T23:41:38.644Z,0.00
2022-12-27T23:51:37.978Z,0.00
